Time;durP1;ratioP1;P1;durP2;ratioP2;P2;SDS_P1;SDS_P2;PMS_P1;PMS_P2;Temp;Humidity;BMP_temperature;BMP_pressure;BME280_temperature;BME280_humidity;BME280_pressure;Samples;Min_cycle;Max_cycle;Signal;HPM_P1;HPM_P2
2023/01/14 00:01:51;;;;;;;16.00;3.88;;;;;;;;;;5069351;28;20104;-56
2023/01/14 00:04:17;;;;;;;24.38;4.57;;;;;;;;;;5068307;28;20370;-55
2023/01/14 00:06:42;;;;;;;17.17;3.60;;;;;;;;;;5060436;28;20119;-53
2023/01/14 00:09:11;;;;;;;18.40;3.55;;;;;;;;;;5068097;28;20047;-55
2023/01/14 00:11:46;;;;;;;11.18;3.00;;;;;;;;;;5068987;28;20063;-57
2023/01/14 00:14:21;;;;;;;20.45;3.72;;;;;;;;;;5070916;28;20504;-54
2023/01/14 00:16:46;;;;;;;15.25;3.10;;;;;;;;;;5070636;28;20036;-57
2023/01/14 00:19:13;;;;;;;10.15;3.28;;;;;;;;;;5068295;28;20866;-56
2023/01/14 00:21:40;;;;;;;12.90;3.28;;;;;;;;;;5068848;28;20039;-55
2023/01/14 00:24:06;;;;;;;20.50;3.78;;;;;;;;;;5067538;28;20484;-57
2023/01/14 00:26:32;;;;;;;14.38;2.90;;;;;;;;;;5066509;28;20040;-60
2023/01/14 00:28:57;;;;;;;16.15;3.38;;;;;;;;;;5069933;28;20044;-56
2023/01/14 00:31:26;;;;;;;14.30;2.92;;;;;;;;;;5072150;28;20047;-56
2023/01/14 00:33:52;;;;;;;15.13;3.03;;;;;;;;;;5068149;28;20035;-61
2023/01/14 00:36:20;;;;;;;13.32;2.85;;;;;;;;;;5070528;28;20559;-58
2023/01/14 00:38:46;;;;;;;11.93;3.03;;;;;;;;;;5058659;28;20032;-56
2023/01/14 00:41:17;;;;;;;14.95;2.72;;;;;;;;;;5066819;28;20524;-57
2023/01/14 00:43:46;;;;;;;;;;;;;;;;;;5054865;28;20041;-56
2023/01/14 00:46:15;;;;;;;10.23;2.67;;;;;;;;;;5069626;28;19977;-60
2023/01/14 00:48:41;;;;;;;18.50;3.00;;;;;;;;;;5053204;28;20040;-53
2023/01/14 00:51:07;;;;;;;13.75;2.88;;;;;;;;;;5081053;28;20039;-57
2023/01/14 00:53:33;;;;;;;18.48;3.35;;;;;;;;;;5070448;28;20036;-61
2023/01/14 00:55:59;;;;;;;13.35;2.45;;;;;;;;;;5076787;28;20032;-57
2023/01/14 00:58:25;;;;;;;16.75;3.38;;;;;;;;;;5072089;28;20036;-60
2023/01/14 01:00:52;;;;;;;14.20;3.63;;;;;;;;;;5085594;28;20701;-56
2023/01/14 01:03:18;;;;;;;20.60;4.22;;;;;;;;;;5093977;28;20099;-57
2023/01/14 01:05:44;;;;;;;13.50;2.90;;;;;;;;;;5076181;28;20039;-57
2023/01/14 01:08:13;;;;;;;15.18;4.45;;;;;;;;;;5080413;28;20039;-58
2023/01/14 01:10:38;;;;;;;15.73;3.70;;;;;;;;;;5078470;28;20032;-58
2023/01/14 01:13:04;;;;;;;15.82;2.95;;;;;;;;;;5092662;28;20032;-59
2023/01/14 01:15:34;;;;;;;12.27;2.88;;;;;;;;;;5077737;28;20036;-61
2023/01/14 01:18:00;;;;;;;12.68;2.53;;;;;;;;;;5072029;28;20031;-57
2023/01/14 01:20:26;;;;;;;15.27;3.00;;;;;;;;;;5070486;28;20063;-55
2023/01/14 01:22:51;;;;;;;9.50;2.40;;;;;;;;;;5070430;28;20099;-57
2023/01/14 01:25:17;;;;;;;20.63;3.25;;;;;;;;;;5065843;28;20049;-57
2023/01/14 01:27:42;;;;;;;17.15;2.83;;;;;;;;;;5071175;28;20469;-53
2023/01/14 01:30:09;;;;;;;19.33;3.40;;;;;;;;;;5070511;28;20029;-58
2023/01/14 01:32:34;;;;;;;16.92;3.00;;;;;;;;;;5078870;28;20036;-58
2023/01/14 01:35:00;;;;;;;14.30;2.70;;;;;;;;;;5077392;28;20165;-57
2023/01/14 01:37:27;;;;;;;18.30;3.25;;;;;;;;;;5082415;28;20055;-57
2023/01/14 01:39:52;;;;;;;17.92;3.00;;;;;;;;;;5069858;28;20028;-58
2023/01/14 01:42:22;;;;;;;14.30;3.10;;;;;;;;;;5072369;28;20028;-58
2023/01/14 01:44:47;;;;;;;15.82;3.10;;;;;;;;;;5071512;28;20143;-58
2023/01/14 01:47:13;;;;;;;13.27;2.40;;;;;;;;;;5071667;28;20032;-58
2023/01/14 01:49:39;;;;;;;18.88;2.95;;;;;;;;;;5067926;28;20035;-60
2023/01/14 01:52:26;;;;;;;14.05;3.10;;;;;;;;;;5071468;28;20158;-57
2023/01/14 01:54:57;;;;;;;14.15;2.95;;;;;;;;;;5067971;28;20040;-58
2023/01/14 01:57:23;;;;;;;9.48;1.88;;;;;;;;;;5075805;28;20028;-58
2023/01/14 01:59:53;;;;;;;19.52;3.53;;;;;;;;;;5069485;28;20052;-58
2023/01/14 02:02:20;;;;;;;14.95;2.65;;;;;;;;;;5068862;28;20032;-57
2023/01/14 02:04:46;;;;;;;13.98;3.53;;;;;;;;;;5070440;28;20182;-58
2023/01/14 02:07:16;;;;;;;12.23;2.78;;;;;;;;;;5078767;28;20551;-57
2023/01/14 02:09:42;;;;;;;17.08;3.17;;;;;;;;;;5081272;28;20120;-56
2023/01/14 02:12:27;;;;;;;19.77;2.80;;;;;;;;;;5071149;28;20482;-55
2023/01/14 02:15:10;;;;;;;11.18;2.10;;;;;;;;;;5067183;28;20118;-57
2023/01/14 02:18:02;;;;;;;17.65;3.17;;;;;;;;;;5070359;28;20036;-58
2023/01/14 02:20:47;;;;;;;12.27;2.70;;;;;;;;;;5066245;28;20043;-57
2023/01/14 02:23:47;;;;;;;22.85;3.58;;;;;;;;;;5069732;28;20385;-55
2023/01/14 02:26:33;;;;;;;14.98;3.40;;;;;;;;;;5079994;28;20519;-61
2023/01/14 02:29:35;;;;;;;16.30;3.17;;;;;;;;;;5056285;28;20048;-58
2023/01/14 02:32:26;;;;;;;23.52;3.92;;;;;;;;;;5067401;28;20036;-57
2023/01/14 02:35:03;;;;;;;14.73;3.60;;;;;;;;;;5069207;28;20055;-57
2023/01/14 02:37:42;;;;;;;16.83;2.58;;;;;;;;;;5060126;28;20025;-57
2023/01/14 02:40:33;;;;;;;20.02;3.47;;;;;;;;;;5069003;28;20043;-58
2023/01/14 02:46:05;;;;;;;26.30;3.10;;;;;;;;;;5082685;28;20075;-56
2023/01/14 02:48:32;;;;;;;25.17;4.23;;;;;;;;;;5085722;28;20461;-59
2023/01/14 02:50:59;;;;;;;21.10;3.50;;;;;;;;;;5070649;28;20064;-56
2023/01/14 02:53:25;;;;;;;16.48;2.92;;;;;;;;;;5071928;28;20039;-58
2023/01/14 02:55:50;;;;;;;17.88;3.17;;;;;;;;;;5081839;28;20030;-57
2023/01/14 02:58:26;;;;;;;15.10;2.85;;;;;;;;;;5064619;28;20036;-56
2023/01/14 03:01:08;;;;;;;14.52;2.80;;;;;;;;;;5069630;28;20039;-55
2023/01/14 03:03:48;;;;;;;13.85;3.05;;;;;;;;;;5068941;28;20102;-63
2023/01/14 03:06:21;;;;;;;23.33;3.03;;;;;;;;;;5072523;28;20111;-55
2023/01/14 03:09:17;;;;;;;21.45;3.63;;;;;;;;;;5072804;28;20119;-58
2023/01/14 03:11:56;;;;;;;18.75;3.45;;;;;;;;;;5066850;28;20101;-54
2023/01/14 03:14:28;;;;;;;19.67;3.60;;;;;;;;;;5073943;28;20041;-55
2023/01/14 03:17:00;;;;;;;33.40;4.95;;;;;;;;;;5069869;28;20040;-54
2023/01/14 03:19:40;;;;;;;16.50;3.50;;;;;;;;;;5070469;28;20428;-58
2023/01/14 03:22:07;;;;;;;24.35;3.78;;;;;;;;;;5080251;28;20028;-55
2023/01/14 03:24:37;;;;;;;21.20;3.63;;;;;;;;;;5069757;28;20032;-61
2023/01/14 03:27:06;;;;;;;17.60;2.92;;;;;;;;;;5071639;28;20032;-57
2023/01/14 03:29:36;;;;;;;15.07;2.90;;;;;;;;;;5079031;28;20073;-61
2023/01/14 03:32:09;;;;;;;21.25;3.55;;;;;;;;;;5091940;28;20040;-56
2023/01/14 03:34:45;;;;;;;17.65;3.30;;;;;;;;;;5063584;28;20044;-61
2023/01/14 03:37:13;;;;;;;22.27;2.95;;;;;;;;;;5062210;28;20046;-57
2023/01/14 03:39:43;;;;;;;17.08;3.85;;;;;;;;;;5070298;28;20033;-57
2023/01/14 03:42:18;;;;;;;16.65;3.03;;;;;;;;;;5080477;28;20461;-56
2023/01/14 03:45:05;;;;;;;19.40;3.38;;;;;;;;;;5088770;28;20051;-57
2023/01/14 03:47:33;;;;;;;24.20;4.97;;;;;;;;;;5078070;28;20036;-60
2023/01/14 03:50:02;;;;;;;16.92;3.58;;;;;;;;;;5068748;28;20063;-55
2023/01/14 03:52:40;;;;;;;24.02;3.13;;;;;;;;;;5069899;28;20032;-56
2023/01/14 03:55:47;;;;;;;16.85;3.22;;;;;;;;;;5064868;28;20468;-57
2023/01/14 03:58:24;;;;;;;14.80;2.97;;;;;;;;;;5070247;28;20044;-57
2023/01/14 04:00:57;;;;;;;17.27;4.00;;;;;;;;;;5067577;28;20076;-54
2023/01/14 04:03:24;;;;;;;18.38;3.92;;;;;;;;;;5069504;28;20170;-58
2023/01/14 04:05:51;;;;;;;22.25;4.43;;;;;;;;;;5082941;28;20306;-55
2023/01/14 04:08:21;;;;;;;13.32;2.80;;;;;;;;;;5076988;28;20111;-57
2023/01/14 04:10:47;;;;;;;19.80;2.83;;;;;;;;;;5072597;28;20473;-56
2023/01/14 04:15:58;;;;;;;17.60;3.15;;;;;;;;;;5083963;28;20438;-57
2023/01/14 04:18:24;;;;;;;18.25;2.85;;;;;;;;;;5092518;28;20025;-53
2023/01/14 04:20:49;;;;;;;18.40;3.92;;;;;;;;;;5071274;28;20583;-57
2023/01/14 04:23:15;;;;;;;18.63;3.33;;;;;;;;;;5072618;28;20530;-60
2023/01/14 04:25:41;;;;;;;15.40;3.42;;;;;;;;;;5070221;28;20025;-56
2023/01/14 04:28:06;;;;;;;18.08;3.45;;;;;;;;;;5071096;28;20109;-57
2023/01/14 04:30:32;;;;;;;8.32;2.85;;;;;;;;;;5071845;28;20083;-61
2023/01/14 04:32:57;;;;;;;20.33;3.45;;;;;;;;;;5072369;28;20069;-57
2023/01/14 04:35:22;;;;;;;19.45;3.20;;;;;;;;;;5072318;28;20393;-57
2023/01/14 04:37:49;;;;;;;21.77;3.70;;;;;;;;;;5071786;28;20033;-55
2023/01/14 04:40:14;;;;;;;22.38;3.60;;;;;;;;;;5073594;28;20107;-56
2023/01/14 04:42:39;;;;;;;21.73;5.35;;;;;;;;;;5070360;28;20063;-57
2023/01/14 04:45:05;;;;;;;19.92;3.80;;;;;;;;;;5074193;28;20021;-54
2023/01/14 04:47:31;;;;;;;20.63;3.88;;;;;;;;;;5071085;28;20044;-60
2023/01/14 04:49:57;;;;;;;19.67;3.40;;;;;;;;;;5083408;28;20028;-56
2023/01/14 04:52:23;;;;;;;19.63;3.33;;;;;;;;;;5077376;28;20021;-55
2023/01/14 04:54:50;;;;;;;20.65;2.67;;;;;;;;;;5072827;28;20532;-52
2023/01/14 04:57:16;;;;;;;19.25;3.03;;;;;;;;;;5088467;28;20028;-56
2023/01/14 04:59:41;;;;;;;11.43;2.55;;;;;;;;;;5087643;28;20049;-57
2023/01/14 05:02:06;;;;;;;14.65;2.58;;;;;;;;;;5072053;28;20481;-57
2023/01/14 05:04:32;;;;;;;21.75;3.20;;;;;;;;;;5072124;28;20041;-60
2023/01/14 05:06:58;;;;;;;15.57;3.15;;;;;;;;;;5085625;28;20123;-56
2023/01/14 05:09:23;;;;;;;13.60;2.72;;;;;;;;;;5067396;28;20078;-54
2023/01/14 05:11:49;;;;;;;20.35;3.10;;;;;;;;;;5074858;28;20112;-56
2023/01/14 05:14:15;;;;;;;19.05;2.92;;;;;;;;;;5076787;28;20035;-56
2023/01/14 05:16:40;;;;;;;10.63;2.60;;;;;;;;;;5069999;28;20036;-52
2023/01/14 05:19:06;;;;;;;16.65;2.75;;;;;;;;;;5073612;28;20039;-55
2023/01/14 05:21:31;;;;;;;14.65;2.67;;;;;;;;;;5068815;28;20512;-60
2023/01/14 05:23:56;;;;;;;17.30;2.90;;;;;;;;;;5090068;28;20194;-57
2023/01/14 05:26:22;;;;;;;18.33;3.15;;;;;;;;;;5067632;28;20040;-58
2023/01/14 05:28:47;;;;;;;16.67;3.08;;;;;;;;;;5065706;28;20112;-58
2023/01/14 05:31:13;;;;;;;22.90;3.30;;;;;;;;;;5073412;28;20405;-57
2023/01/14 05:33:38;;;;;;;22.70;3.05;;;;;;;;;;5078354;28;20161;-58
2023/01/14 05:36:05;;;;;;;17.70;3.38;;;;;;;;;;5072550;28;20032;-58
2023/01/14 05:38:30;;;;;;;20.30;3.13;;;;;;;;;;5072704;28;20044;-58
2023/01/14 05:40:56;;;;;;;16.83;2.85;;;;;;;;;;5081974;28;20028;-55
2023/01/14 05:46:16;;;;;;;20.60;3.13;;;;;;;;;;5090118;28;20093;-57
2023/01/14 05:48:41;;;;;;;19.38;3.60;;;;;;;;;;5086705;28;20039;-58
2023/01/14 05:51:07;;;;;;;17.02;3.03;;;;;;;;;;5073010;28;20024;-56
2023/01/14 05:53:33;;;;;;;17.33;3.72;;;;;;;;;;5072587;28;20036;-61
2023/01/14 05:55:59;;;;;;;17.63;3.53;;;;;;;;;;5074145;28;20039;-57
2023/01/14 05:58:25;;;;;;;14.88;2.95;;;;;;;;;;5091868;28;20081;-57
2023/01/14 06:06:24;;;;;;;16.48;2.92;;;;;;;;;;5072093;28;20038;-58
2023/01/14 06:08:54;;;;;;;23.27;2.97;;;;;;;;;;5069539;28;20029;-57
2023/01/14 06:11:21;;;;;;;19.77;2.47;;;;;;;;;;5071722;28;20104;-57
2023/01/14 06:13:48;;;;;;;14.38;2.90;;;;;;;;;;5079676;28;20040;-57
2023/01/14 06:16:14;;;;;;;16.17;2.92;;;;;;;;;;5052238;28;20029;-61
2023/01/14 06:18:43;;;;;;;15.30;2.75;;;;;;;;;;5090753;28;20036;-58
2023/01/14 06:21:14;;;;;;;14.85;2.88;;;;;;;;;;5067149;28;20028;-56
2023/01/14 06:23:40;;;;;;;12.57;2.97;;;;;;;;;;5087444;28;20132;-59
2023/01/14 06:26:14;;;;;;;13.60;2.65;;;;;;;;;;5092652;28;20504;-57
2023/01/14 06:28:40;;;;;;;16.65;3.03;;;;;;;;;;5090349;28;20038;-57
2023/01/14 06:31:16;;;;;;;18.02;2.63;;;;;;;;;;5073503;28;20020;-57
2023/01/14 06:33:42;;;;;;;18.17;3.15;;;;;;;;;;5090523;28;20035;-57
2023/01/14 06:36:09;;;;;;;16.25;2.33;;;;;;;;;;5088414;28;20055;-55
2023/01/14 06:38:34;;;;;;;12.52;2.40;;;;;;;;;;5091591;28;20113;-61
2023/01/14 06:41:01;;;;;;;14.57;2.67;;;;;;;;;;5089344;28;20116;-57
2023/01/14 06:43:27;;;;;;;13.80;2.45;;;;;;;;;;5071288;28;20032;-59
2023/01/14 06:45:56;;;;;;;9.10;2.40;;;;;;;;;;5082437;28;20116;-56
2023/01/14 06:48:22;;;;;;;16.10;2.65;;;;;;;;;;5082232;28;20028;-55
2023/01/14 06:50:49;;;;;;;13.65;2.92;;;;;;;;;;5082447;28;20037;-56
2023/01/14 06:53:15;;;;;;;17.10;2.53;;;;;;;;;;5061307;28;20043;-58
2023/01/14 06:55:40;;;;;;;20.65;2.95;;;;;;;;;;5054237;28;20029;-59
2023/01/14 06:58:05;;;;;;;15.93;2.47;;;;;;;;;;5066745;28;20047;-60
2023/01/14 07:00:31;;;;;;;7.95;1.70;;;;;;;;;;5052579;28;20041;-60
2023/01/14 07:02:57;;;;;;;7.63;2.10;;;;;;;;;;5030883;28;20033;-55
2023/01/14 07:05:22;;;;;;;15.32;2.38;;;;;;;;;;5002879;28;20056;-57
2023/01/14 07:07:48;;;;;;;11.02;2.10;;;;;;;;;;5031021;28;20455;-55
2023/01/14 07:10:15;;;;;;;11.45;2.22;;;;;;;;;;5031652;28;20492;-57
2023/01/14 07:12:47;;;;;;;8.43;2.25;;;;;;;;;;5030726;28;20430;-61
2023/01/14 07:15:14;;;;;;;12.32;1.70;;;;;;;;;;5031981;28;20041;-55
2023/01/14 07:17:39;;;;;;;9.95;2.10;;;;;;;;;;5011116;28;20029;-59
2023/01/14 07:20:07;;;;;;;13.40;2.63;;;;;;;;;;5023787;28;20033;-58
2023/01/14 07:22:33;;;;;;;13.93;2.17;;;;;;;;;;5030760;28;20033;-61
2023/01/14 07:25:01;;;;;;;9.73;2.00;;;;;;;;;;5030221;28;20421;-56
2023/01/14 07:27:27;;;;;;;9.77;2.08;;;;;;;;;;5029522;28;20088;-55
2023/01/14 07:29:52;;;;;;;11.18;2.47;;;;;;;;;;5029021;28;20033;-56
2023/01/14 07:32:18;;;;;;;9.32;2.08;;;;;;;;;;5031657;28;20108;-57
2023/01/14 07:34:43;;;;;;;14.32;2.55;;;;;;;;;;5029912;28;20462;-57
2023/01/14 07:37:08;;;;;;;12.05;2.35;;;;;;;;;;5028297;28;20366;-57
2023/01/14 07:39:34;;;;;;;14.57;2.17;;;;;;;;;;5030278;28;20474;-62
2023/01/14 07:41:59;;;;;;;11.68;1.80;;;;;;;;;;5035312;28;20025;-56
2023/01/14 07:44:25;;;;;;;14.68;2.25;;;;;;;;;;5035596;28;20040;-54
2023/01/14 07:46:54;;;;;;;9.48;2.00;;;;;;;;;;5033357;28;20033;-58
2023/01/14 07:49:21;;;;;;;14.27;2.67;;;;;;;;;;5035100;28;20030;-58
2023/01/14 07:51:46;;;;;;;6.03;2.00;;;;;;;;;;5034510;28;20492;-58
2023/01/14 07:54:12;;;;;;;6.80;2.08;;;;;;;;;;5034810;28;20041;-57
2023/01/14 07:56:37;;;;;;;10.82;2.22;;;;;;;;;;5034314;28;20021;-60
2023/01/14 07:59:03;;;;;;;12.52;2.47;;;;;;;;;;5040454;28;20049;-60
2023/01/14 08:01:28;;;;;;;12.55;2.65;;;;;;;;;;5055625;28;20103;-58
2023/01/14 08:03:53;;;;;;;13.88;2.28;;;;;;;;;;5056560;28;20068;-59
2023/01/14 08:06:19;;;;;;;13.10;2.20;;;;;;;;;;5073824;28;20128;-60
2023/01/14 08:08:44;;;;;;;14.25;2.72;;;;;;;;;;5073854;28;20086;-61
2023/01/14 08:11:09;;;;;;;9.32;2.00;;;;;;;;;;5073446;28;20046;-61
2023/01/14 08:13:35;;;;;;;11.98;2.67;;;;;;;;;;5072377;28;20058;-62
2023/01/14 08:16:02;;;;;;;12.93;2.42;;;;;;;;;;5074432;28;20093;-60
2023/01/14 08:18:29;;;;;;;10.57;2.03;;;;;;;;;;5074641;28;20115;-59
2023/01/14 08:20:59;;;;;;;9.02;2.22;;;;;;;;;;5073755;28;20516;-58
2023/01/14 08:23:25;;;;;;;10.77;2.25;;;;;;;;;;5074816;28;20025;-57
2023/01/14 08:25:51;;;;;;;12.80;2.90;;;;;;;;;;5072430;28;20119;-58
2023/01/14 08:28:17;;;;;;;18.95;2.67;;;;;;;;;;5074498;28;20362;-58
2023/01/14 08:30:43;;;;;;;12.77;2.22;;;;;;;;;;5073869;28;20119;-57
2023/01/14 08:33:08;;;;;;;11.02;2.42;;;;;;;;;;5067535;28;20108;-56
2023/01/14 08:35:39;;;;;;;12.82;2.47;;;;;;;;;;5053425;28;20519;-61
2023/01/14 08:38:05;;;;;;;17.15;2.60;;;;;;;;;;5054389;28;20068;-58
2023/01/14 08:40:31;;;;;;;9.57;2.20;;;;;;;;;;5061642;28;20064;-60
2023/01/14 08:42:57;;;;;;;8.57;2.10;;;;;;;;;;5073930;28;20029;-57
2023/01/14 08:45:22;;;;;;;11.10;2.35;;;;;;;;;;5074331;28;20036;-56
2023/01/14 08:47:47;;;;;;;8.98;2.28;;;;;;;;;;5070772;28;20579;-54
2023/01/14 08:50:13;;;;;;;12.30;2.95;;;;;;;;;;5072811;28;20028;-55
2023/01/14 08:52:38;;;;;;;12.82;2.47;;;;;;;;;;5072230;28;20113;-54
2023/01/14 08:55:04;;;;;;;12.45;2.60;;;;;;;;;;5072586;28;20035;-58
2023/01/14 08:57:29;;;;;;;12.60;2.28;;;;;;;;;;5072685;28;20032;-60
2023/01/14 08:59:55;;;;;;;10.77;1.85;;;;;;;;;;5069328;28;20036;-55
2023/01/14 09:02:20;;;;;;;10.55;2.20;;;;;;;;;;5072955;28;20029;-53
2023/01/14 09:04:45;;;;;;;13.57;2.30;;;;;;;;;;5071950;28;20395;-57
2023/01/14 09:18:06;;;;;;;9.63;2.55;;;;;;;;;;5072534;28;20050;-56
2023/01/14 09:20:38;;;;;;;8.77;2.15;;;;;;;;;;5071808;28;20532;-59
2023/01/14 09:23:06;;;;;;;12.45;2.88;;;;;;;;;;5072821;28;20044;-57
2023/01/14 09:25:31;;;;;;;9.15;2.33;;;;;;;;;;5072492;28;20031;-60
2023/01/14 09:27:57;;;;;;;12.52;2.20;;;;;;;;;;5071321;28;20028;-58
2023/01/14 09:30:23;;;;;;;10.52;2.95;;;;;;;;;;5071725;28;20040;-57
2023/01/14 09:32:48;;;;;;;10.52;3.22;;;;;;;;;;5071161;28;20394;-55
2023/01/14 09:35:14;;;;;;;12.30;2.17;;;;;;;;;;5072136;28;20040;-56
2023/01/14 09:37:39;;;;;;;17.67;2.50;;;;;;;;;;5071508;28;20075;-54
2023/01/14 09:40:05;;;;;;;10.57;2.10;;;;;;;;;;5070901;28;20035;-59
2023/01/14 09:42:41;;;;;;;10.65;2.80;;;;;;;;;;5068359;28;20033;-60
2023/01/14 09:45:29;;;;;;;7.53;1.80;;;;;;;;;;5070727;28;20040;-55
2023/01/14 09:47:57;;;;;;;7.28;1.92;;;;;;;;;;5071012;28;20038;-57
2023/01/14 09:50:42;;;;;;;12.02;2.70;;;;;;;;;;5071392;28;20496;-58
2023/01/14 09:53:29;;;;;;;7.30;2.40;;;;;;;;;;5071658;28;20029;-58
2023/01/14 09:56:01;;;;;;;9.77;2.08;;;;;;;;;;5070997;28;20552;-57
2023/01/14 09:58:36;;;;;;;10.73;2.17;;;;;;;;;;5071124;28;20124;-58
2023/01/14 10:01:17;;;;;;;7.65;1.98;;;;;;;;;;5071101;28;20099;-58
2023/01/14 10:04:05;;;;;;;9.25;1.63;;;;;;;;;;5068384;28;20058;-58
2023/01/14 10:06:32;;;;;;;10.23;2.03;;;;;;;;;;5065906;28;20053;-61
2023/01/14 10:09:12;;;;;;;8.13;1.80;;;;;;;;;;5071511;28;20028;-58
2023/01/14 10:11:42;;;;;;;6.20;2.55;;;;;;;;;;5055349;28;20086;-57
2023/01/14 10:14:19;;;;;;;6.20;1.90;;;;;;;;;;5065492;28;20032;-60
2023/01/14 10:16:48;;;;;;;6.38;1.90;;;;;;;;;;5061776;28;20081;-59
2023/01/14 10:19:22;;;;;;;8.90;1.60;;;;;;;;;;5069843;28;20040;-59
2023/01/14 10:21:49;;;;;;;8.93;1.67;;;;;;;;;;5070296;28;20032;-61
2023/01/14 10:24:17;;;;;;;6.18;1.50;;;;;;;;;;5070160;28;20063;-61
2023/01/14 10:26:48;;;;;;;8.25;1.60;;;;;;;;;;5071004;28;20032;-59
2023/01/14 10:29:17;;;;;;;5.68;1.90;;;;;;;;;;5071008;28;20481;-59
2023/01/14 10:32:02;;;;;;;6.32;1.92;;;;;;;;;;5070085;28;20033;-58
2023/01/14 10:34:40;;;;;;;4.15;1.40;;;;;;;;;;5068844;28;20045;-58
2023/01/14 10:37:07;;;;;;;4.32;1.17;;;;;;;;;;5059922;28;20466;-58
2023/01/14 10:39:32;;;;;;;5.20;1.50;;;;;;;;;;5051304;28;20493;-61
2023/01/14 10:42:00;;;;;;;7.10;2.22;;;;;;;;;;5068707;28;20025;-58
2023/01/14 10:44:38;;;;;;;3.63;1.63;;;;;;;;;;5071965;28;20055;-58
2023/01/14 10:47:09;;;;;;;6.05;1.75;;;;;;;;;;5070264;28;20044;-60
2023/01/14 10:49:57;;;;;;;6.13;1.60;;;;;;;;;;5070278;28;20046;-62
2023/01/14 10:52:26;;;;;;;4.00;1.70;;;;;;;;;;5069799;28;20111;-59
2023/01/14 10:55:12;;;;;;;6.50;1.92;;;;;;;;;;5069972;28;20047;-59
2023/01/14 10:57:49;;;;;;;7.68;1.98;;;;;;;;;;5069330;28;20090;-62
2023/01/14 11:00:32;;;;;;;2.03;1.10;;;;;;;;;;5068594;28;20049;-59
2023/01/14 11:02:59;;;;;;;8.93;1.80;;;;;;;;;;5070028;28;20056;-60
2023/01/14 11:05:32;;;;;;;7.60;1.70;;;;;;;;;;5070610;28;20029;-61
2023/01/14 11:08:03;;;;;;;4.32;1.65;;;;;;;;;;5071658;28;20028;-61
2023/01/14 11:10:30;;;;;;;5.30;1.63;;;;;;;;;;5070417;28;20040;-60
2023/01/14 11:13:24;;;;;;;6.68;1.88;;;;;;;;;;5069615;28;20064;-61
2023/01/14 11:15:49;;;;;;;4.80;1.65;;;;;;;;;;5067196;28;20075;-61
2023/01/14 11:18:22;;;;;;;7.63;1.90;;;;;;;;;;5069177;28;20064;-59
2023/01/14 11:21:20;;;;;;;4.65;1.50;;;;;;;;;;5066876;28;20041;-60
2023/01/14 11:23:53;;;;;;;3.78;1.45;;;;;;;;;;5068204;28;20054;-62
2023/01/14 11:26:35;;;;;;;4.93;1.58;;;;;;;;;;5069811;28;20075;-60
2023/01/14 11:29:23;;;;;;;5.03;1.48;;;;;;;;;;5070563;28;20058;-61
2023/01/14 11:32:07;;;;;;;7.05;1.40;;;;;;;;;;5056262;28;20036;-59
2023/01/14 11:34:38;;;;;;;7.65;1.90;;;;;;;;;;5069637;28;20082;-62
2023/01/14 11:37:10;;;;;;;;;;;;;;;;;;5071720;28;20036;-58
2023/01/14 11:39:37;;;;;;;4.72;1.70;;;;;;;;;;5069333;28;19927;-61
2023/01/14 11:42:26;;;;;;;5.00;1.85;;;;;;;;;;5049887;28;20241;-60
2023/01/14 11:44:58;;;;;;;4.30;1.30;;;;;;;;;;5056702;28;20048;-62
2023/01/14 11:47:24;;;;;;;4.25;1.50;;;;;;;;;;5051278;28;20535;-60
2023/01/14 11:50:10;;;;;;;4.43;1.48;;;;;;;;;;5051377;28;20025;-60
2023/01/14 11:52:36;;;;;;;4.85;1.60;;;;;;;;;;5064585;28;20044;-61
2023/01/14 11:55:03;;;;;;;3.53;1.45;;;;;;;;;;5070261;28;20025;-60
2023/01/14 11:57:28;;;;;;;6.63;1.85;;;;;;;;;;5067413;28;20418;-62
2023/01/14 11:59:54;;;;;;;4.68;1.45;;;;;;;;;;5069381;28;20051;-62
2023/01/14 12:02:39;;;;;;;3.15;1.40;;;;;;;;;;5069977;28;20032;-60
2023/01/14 12:05:21;;;;;;;5.10;1.73;;;;;;;;;;5070177;28;20028;-61
2023/01/14 12:07:54;;;;;;;3.22;1.40;;;;;;;;;;5068254;28;20114;-61
2023/01/14 12:10:28;;;;;;;4.65;1.48;;;;;;;;;;5070909;28;20086;-61
2023/01/14 12:18:36;;;;;;;3.63;1.50;;;;;;;;;;5069272;28;20036;-59
2023/01/14 12:21:04;;;;;;;3.95;1.35;;;;;;;;;;5068063;28;20035;-61
2023/01/14 12:23:31;;;;;;;2.88;1.60;;;;;;;;;;5062926;28;20025;-60
2023/01/14 12:25:59;;;;;;;6.88;2.00;;;;;;;;;;5071661;28;20039;-61
2023/01/14 12:28:33;;;;;;;4.82;1.98;;;;;;;;;;5069953;28;20122;-61
2023/01/14 12:31:12;;;;;;;5.18;1.73;;;;;;;;;;5055007;28;20086;-60
2023/01/14 12:33:43;;;;;;;5.88;2.30;;;;;;;;;;5072205;28;20407;-61
2023/01/14 12:36:24;;;;;;;4.82;1.77;;;;;;;;;;5073052;28;20039;-62
2023/01/14 12:47:33;;;;;;;3.83;1.73;;;;;;;;;;5072675;28;20055;-61
2023/01/14 12:49:59;;;;;;;6.40;2.22;;;;;;;;;;5072912;28;20776;-61
2023/01/14 12:52:34;;;;;;;5.35;1.90;;;;;;;;;;5072427;28;20028;-61
2023/01/14 12:55:01;;;;;;;4.65;1.88;;;;;;;;;;5072526;28;20181;-61
2023/01/14 12:57:27;;;;;;;3.05;1.40;;;;;;;;;;5072991;28;20025;-61
2023/01/14 13:00:18;;;;;;;6.68;1.70;;;;;;;;;;5070116;28;20076;-60
2023/01/14 13:02:47;;;;;;;3.42;1.52;;;;;;;;;;5072878;28;20036;-61
2023/01/14 13:05:22;;;;;;;3.83;1.88;;;;;;;;;;5073110;28;20499;-61
2023/01/14 13:07:55;;;;;;;4.13;1.60;;;;;;;;;;5070730;28;20036;-61
2023/01/14 13:10:34;;;;;;;3.50;1.80;;;;;;;;;;5071284;28;20419;-61
2023/01/14 13:13:01;;;;;;;3.95;1.70;;;;;;;;;;5072635;28;20077;-61
2023/01/14 13:15:33;;;;;;;2.70;1.45;;;;;;;;;;5072097;28;20036;-61
2023/01/14 13:18:00;;;;;;;4.97;1.70;;;;;;;;;;5070759;28;20040;-60
2023/01/14 13:20:29;;;;;;;5.72;1.67;;;;;;;;;;5072515;28;20029;-60
2023/01/14 13:22:59;;;;;;;7.57;2.17;;;;;;;;;;5070130;28;20566;-61
2023/01/14 13:25:38;;;;;;;5.47;1.80;;;;;;;;;;5072286;28;20067;-59
2023/01/14 13:28:10;;;;;;;4.05;1.63;;;;;;;;;;5069939;28;20074;-60
2023/01/14 13:30:55;;;;;;;2.00;1.40;;;;;;;;;;5069818;28;20040;-62
2023/01/14 13:33:29;;;;;;;4.97;1.60;;;;;;;;;;5072227;28;20463;-58
2023/01/14 13:36:20;;;;;;;3.70;1.48;;;;;;;;;;5070970;28;20214;-59
2023/01/14 13:39:06;;;;;;;5.97;1.90;;;;;;;;;;5068684;28;20095;-60
2023/01/14 13:41:47;;;;;;;5.30;2.70;;;;;;;;;;5068740;28;20037;-60
2023/01/14 13:44:21;;;;;;;;;;;;;;;;;;5070359;28;20039;-60
2023/01/14 13:46:51;;;;;;;2.88;1.60;;;;;;;;;;5071020;28;19913;-60
2023/01/14 13:49:30;;;;;;;3.70;1.92;;;;;;;;;;5055994;28;20031;-60
2023/01/14 13:52:01;;;;;;;4.28;1.60;;;;;;;;;;5070375;28;20234;-61
2023/01/14 13:54:31;;;;;;;1.55;1.17;;;;;;;;;;5072101;28;20033;-62
2023/01/14 13:57:23;;;;;;;3.67;1.73;;;;;;;;;;5070392;28;20044;-62
2023/01/14 13:59:53;;;;;;;1.63;1.30;;;;;;;;;;5068372;28;20036;-61
2023/01/14 14:02:43;;;;;;;4.78;1.63;;;;;;;;;;5072326;28;20051;-61
2023/01/14 14:05:23;;;;;;;5.28;1.80;;;;;;;;;;5072172;28;20037;-61
2023/01/14 14:07:48;;;;;;;2.53;1.70;;;;;;;;;;5071049;28;20489;-61
2023/01/14 14:10:19;;;;;;;5.07;1.90;;;;;;;;;;5071547;28;20032;-61
2023/01/14 14:16:13;;;;;;;2.13;1.10;;;;;;;;;;5072255;28;20070;-61
2023/01/14 14:18:42;;;;;;;2.58;1.35;;;;;;;;;;5058456;28;20094;-60
2023/01/14 14:21:16;;;;;;;2.45;1.15;;;;;;;;;;5071101;28;20029;-59
2023/01/14 14:23:46;;;;;;;4.70;1.80;;;;;;;;;;5071406;28;20157;-59
2023/01/14 14:26:17;;;;;;;3.47;1.90;;;;;;;;;;5069061;28;20031;-60
2023/01/14 14:28:46;;;;;;;3.50;1.40;;;;;;;;;;5068843;28;20037;-61
2023/01/14 14:31:16;;;;;;;2.88;1.30;;;;;;;;;;5070093;28;20036;-61
2023/01/14 14:33:43;;;;;;;2.10;1.50;;;;;;;;;;5070241;28;20127;-61
2023/01/14 14:36:18;;;;;;;5.07;1.40;;;;;;;;;;5069132;28;20315;-59
2023/01/14 14:38:58;;;;;;;3.20;1.80;;;;;;;;;;5077577;28;20044;-60
2023/01/14 14:41:37;;;;;;;2.75;1.65;;;;;;;;;;5071880;28;20512;-60
2023/01/14 14:44:22;;;;;;;3.03;1.45;;;;;;;;;;5070068;28;20068;-61
2023/01/14 14:46:48;;;;;;;2.10;1.40;;;;;;;;;;5070394;28;20051;-61
2023/01/14 14:49:21;;;;;;;4.72;1.63;;;;;;;;;;5077217;28;20040;-59
2023/01/14 14:51:48;;;;;;;4.03;1.95;;;;;;;;;;5070179;28;20449;-60
2023/01/14 14:54:35;;;;;;;3.45;1.77;;;;;;;;;;5079354;28;20461;-59
2023/01/14 14:57:04;;;;;;;5.70;2.38;;;;;;;;;;5071774;28;20438;-59
2023/01/14 14:59:33;;;;;;;1.70;1.25;;;;;;;;;;5069631;28;20040;-60
2023/01/14 15:02:03;;;;;;;2.35;1.40;;;;;;;;;;5070728;28;20165;-58
2023/01/14 15:04:31;;;;;;;3.50;2.03;;;;;;;;;;5071300;28;20024;-62
2023/01/14 15:07:00;;;;;;;2.53;1.27;;;;;;;;;;5067111;28;20081;-61
2023/01/14 15:09:28;;;;;;;3.08;1.60;;;;;;;;;;5070441;28;20052;-61
2023/01/14 15:11:57;;;;;;;2.95;1.73;;;;;;;;;;5080050;28;20107;-60
2023/01/14 15:14:28;;;;;;;3.00;1.88;;;;;;;;;;5071682;28;20036;-63
2023/01/14 15:16:54;;;;;;;2.50;1.50;;;;;;;;;;5070325;28;20385;-60
2023/01/14 15:19:22;;;;;;;1.92;1.30;;;;;;;;;;5078478;28;20039;-60
2023/01/14 15:21:48;;;;;;;2.50;1.42;;;;;;;;;;5070516;28;20063;-60
2023/01/14 15:24:20;;;;;;;3.38;1.60;;;;;;;;;;5068858;28;20372;-60
2023/01/14 15:26:47;;;;;;;3.05;1.63;;;;;;;;;;5070025;28;20028;-60
2023/01/14 15:29:18;;;;;;;2.42;1.50;;;;;;;;;;5067658;28;20021;-58
2023/01/14 15:31:43;;;;;;;3.33;1.65;;;;;;;;;;5056782;28;20285;-59
2023/01/14 15:34:15;;;;;;;2.72;1.80;;;;;;;;;;5061655;28;20535;-60
2023/01/14 15:36:43;;;;;;;3.33;1.80;;;;;;;;;;5076903;28;20052;-60
2023/01/14 15:39:14;;;;;;;2.85;1.77;;;;;;;;;;5065239;28;20068;-63